CheckWX is a tool to help pilots better visualize weather data.  It is not intended as a substitute for an official pre-flight weather briefing.

20:26:00 UTC

FMMI METAR
Ivato Airport
Antananarivo, Madagascar
Current

26 mins ago

FMMI 202000Z 09006KT 9999 FEW017 19/17 Q1020 NOSIG
Observed
Apr-20 @ 20:00 UTC
Wind
  • 090° at 6 KTS
Visibility
10,000+ meters
Flight Rules
VFR
Cloud Levels
  • Few at 1,700' AGL
Temperature
19°C / 66°F
Dewpoint
17°C / 63°F
Humidity
88%
Altimeter
30.12" Hg
Pressure
1019.92 hPa
Previous

56 mins ago

FMMI 201930Z VRB03KT 9999 FEW020CB 19/17 Q1021 NOSIG
Observed
Apr-20 @ 19:30 UTC
Wind
  • Variable at 3 KTS
Visibility
10,000+ meters
Flight Rules
VFR
Cloud Levels
  • Few at 2,000' AGL
Temperature
19°C / 66°F
Dewpoint
17°C / 63°F
Humidity
88%
Altimeter
30.15" Hg
Pressure
1020.92 hPa
Previous

1 hour ago

FMMI 201900Z 11007KT 9999 FEW020CB 19/17 Q1020 NOSIG
Observed
Apr-20 @ 19:00 UTC
Wind
  • 110° at 7 KTS
Visibility
10,000+ meters
Flight Rules
VFR
Cloud Levels
  • Few at 2,000' AGL
Temperature
19°C / 66°F
Dewpoint
17°C / 63°F
Humidity
88%
Altimeter
30.12" Hg
Pressure
1019.92 hPa